Terminal Aerodrome Forecast
Issued by NWS Jackson, KY

Home | Current Version | Previous Version | Text Only | Print | Product List | Glossary On
Versions: 1 2 3 4 5 6 7 8 9 10 11 12 13
554
FTUS43 KJKL 262339
TAFJKL
TAF
KJKL 262339Z 2700/2724 VRB03KT P6SM SKC
     FM272000 VRB04KT P6SM SCT060=

USA.gov is the U.S. government's official web portal to all federal, state and local government web resources and services.